Time;durP1;ratioP1;P1;durP2;ratioP2;P2;SDS_P1;SDS_P2;PMS_P1;PMS_P2;Temp;Humidity;BMP_temperature;BMP_pressure;BME280_temperature;BME280_humidity;BME280_pressure;Samples;Min_cycle;Max_cycle;Signal;HPM_P1;HPM_P2
2022/08/25 00:00:54;;;;;;;;;;;;;;;;;;2106549;28;19924;-44
2022/08/25 00:01:55;;;;;;;;;;;;;;;;;;2106400;28;20007;-44
2022/08/25 00:02:56;;;;;;;;;;;;;;;;;;2106561;28;20369;-48
2022/08/25 00:03:57;;;;;;;;;;;;;;;;;;2106558;28;19959;-45
2022/08/25 00:04:58;;;;;;;;;;;;;;;;;;2106618;28;19924;-44
2022/08/25 00:05:59;;;;;;;;;;;;;;;;;;2106736;28;19950;-43
2022/08/25 00:07:00;;;;;;;;;;;;;;;;;;2106307;28;20455;-44
2022/08/25 00:08:05;;;;;;;;;;;;;;;;;;2106467;28;20381;-43
2022/08/25 00:09:06;;;;;;;;;;;;;;;;;;2106321;28;20289;-43
2022/08/25 00:10:06;;;;;;;;;;;;;;;;;;2106461;28;20504;-43
2022/08/25 00:11:07;;;;;;;;;;;;;;;;;;2106304;28;19959;-43
2022/08/25 00:12:08;;;;;;;;;;;;;;;;;;2106490;28;19924;-43
2022/08/25 00:13:10;;;;;;;;;;;;;;;;;;2106462;28;20213;-44
2022/08/25 00:14:10;;;;;;;;;;;;;;;;;;2106584;28;20010;-43
2022/08/25 00:15:12;;;;;;;;;;;;;;;;;;2106560;28;20034;-45
2022/08/25 00:16:13;;;;;;;;;;;;;;;;;;2106333;28;20105;-43
2022/08/25 00:17:14;;;;;;;;;;;;;;;;;;2106556;28;19924;-44
2022/08/25 00:18:15;;;;;;;;;;;;;;;;;;2106337;28;19924;-43
2022/08/25 00:19:20;;;;;;;;;;;;;;;;;;2106438;28;19928;-43
2022/08/25 00:20:21;;;;;;;;;;;;;;;;;;2106405;28;19991;-43
2022/08/25 00:21:22;;;;;;;;;;;;;;;;;;2106247;28;20373;-43
2022/08/25 00:22:23;;;;;;;;;;;;;;;;;;2106415;28;20007;-43
2022/08/25 00:23:24;;;;;;;;;;;;;;;;;;2106796;28;19924;-43
2022/08/25 00:24:24;;;;;;;;;;;;;;;;;;2106618;28;19924;-43
2022/08/25 00:25:25;;;;;;;;;;;;;;;;;;2106500;28;19974;-44
2022/08/25 00:26:26;;;;;;;;;;;;;;;;;;2106415;28;20031;-43
2022/08/25 00:27:27;;;;;;;;;;;;;;;;;;2106455;28;19943;-43
2022/08/25 00:28:29;;;;;;;;;;;;;;;;;;2106455;28;20007;-43
2022/08/25 00:29:30;;;;;;;;;;;;;;;;;;2106318;28;20460;-42
2022/08/25 00:30:30;;;;;;;;;;;;;;;;;;2106343;28;19924;-43
2022/08/25 00:31:31;;;;;;;;;;;;;;;;;;2106245;28;19959;-43
2022/08/25 00:32:39;;;;;;;;;;;;;;;;;;2106410;28;20325;-45
2022/08/25 00:33:40;;;;;;;;;;;;;;;;;;2106264;28;19970;-42
2022/08/25 00:34:41;;;;;;;;;;;;;;;;;;2106491;28;20010;-43
2022/08/25 00:35:42;;;;;;;;;;;;;;;;;;2106371;28;19924;-42
2022/08/25 00:36:42;;;;;;;;;;;;;;;;;;2106149;28;19955;-43
2022/08/25 00:37:43;;;;;;;;;;;;;;;;;;2106365;28;20400;-43
2022/08/25 00:38:44;;;;;;;;;;;;;;;;;;2106324;28;19990;-43
2022/08/25 00:39:45;;;;;;;;;;;;;;;;;;2106233;28;19934;-42
2022/08/25 00:41:04;;;;;;;;;;;;;;;;;;2106139;28;20381;-44
2022/08/25 00:42:05;;;;;;;;;;;;;;;;;;2106072;28;19924;-43
2022/08/25 00:43:07;;;;;;;;;;;;;;;;;;2106203;28;19924;-43
2022/08/25 00:44:08;;;;;;;;;;;;;;;;;;2106276;28;19931;-43
2022/08/25 00:45:08;;;;;;;;;;;;;;;;;;2106329;28;20015;-43
2022/08/25 00:46:09;;;;;;;;;;;;;;;;;;2106290;28;19939;-44
2022/08/25 00:47:10;;;;;;;;;;;;;;;;;;2106154;28;19935;-43
2022/08/25 00:48:11;;;;;;;;;;;;;;;;;;2106213;28;19924;-43
2022/08/25 00:49:12;;;;;;;;;;;;;;;;;;2106180;28;19924;-44
2022/08/25 00:50:23;;;;;;;;;;;;;;;;;;2106388;28;20011;-43
2022/08/25 00:51:26;;;;;;;;;;;;;;;;;;2106406;28;19924;-42
2022/08/25 00:52:27;;;;;;;;;;;;;;;;;;2106130;28;20388;-43
2022/08/25 00:53:28;;;;;;;;;;;;;;;;;;2105389;28;20032;-43
2022/08/25 00:54:29;;;;;;;;;;;;;;;;;;2105864;28;19940;-43
2022/08/25 00:55:30;;;;;;;;;;;;;;;;;;2106099;28;20555;-45
2022/08/25 00:56:31;;;;;;;;;;;;;;;;;;2106067;28;19934;-43
2022/08/25 00:57:32;;;;;;;;;;;;;;;;;;2106224;28;20050;-44
2022/08/25 00:58:36;;;;;;;;;;;;;;;;;;2106095;28;19947;-43
2022/08/25 00:59:36;;;;;;;;;;;;;;;;;;2106395;28;20026;-45
2022/08/25 01:00:38;;;;;;;;;;;;;;;;;;2106155;28;20007;-45
2022/08/25 01:01:38;;;;;;;;;;;;;;;;;;2106110;28;20026;-44
2022/08/25 01:02:40;;;;;;;;;;;;;;;;;;2106189;28;19928;-44
2022/08/25 01:03:40;;;;;;;;;;;;;;;;;;2106011;28;19924;-44
2022/08/25 01:04:41;;;;;;;;;;;;;;;;;;2106098;28;20377;-44
2022/08/25 01:05:48;;;;;;;;;;;;;;;;;;2106370;28;19924;-43
2022/08/25 01:06:50;;;;;;;;;;;;;;;;;;2106064;28;19975;-43
2022/08/25 01:07:51;;;;;;;;;;;;;;;;;;2106021;28;20036;-42
2022/08/25 01:08:53;;;;;;;;;;;;;;;;;;2106105;28;20030;-43
2022/08/25 01:09:54;;;;;;;;;;;;;;;;;;2106267;28;19938;-45
2022/08/25 01:10:55;;;;;;;;;;;;;;;;;;2106190;28;20015;-44
2022/08/25 01:11:56;;;;;;;;;;;;;;;;;;2106027;28;20399;-43
2022/08/25 01:12:57;;;;;;;;;;;;;;;;;;2106025;28;19944;-43
2022/08/25 01:14:01;;;;;;;;;;;;;;;;;;2106062;28;20007;-42
2022/08/25 01:15:02;;;;;;;;;;;;;;;;;;2106176;28;19931;-43
2022/08/25 01:16:03;;;;;;;;;;;;;;;;;;2105916;28;19924;-42
2022/08/25 01:17:04;;;;;;;;;;;;;;;;;;2105969;28;19963;-43
2022/08/25 01:18:05;;;;;;;;;;;;;;;;;;2106065;28;19938;-42
2022/08/25 01:19:06;;;;;;;;;;;;;;;;;;2105986;28;19928;-42
2022/08/25 01:20:07;;;;;;;;;;;;;;;;;;2106057;28;19924;-42
2022/08/25 01:21:09;;;;;;;;;;;;;;;;;;2106024;28;19928;-43
2022/08/25 01:22:10;;;;;;;;;;;;;;;;;;2106148;28;19932;-43
2022/08/25 01:23:11;;;;;;;;;;;;;;;;;;2106107;28;19930;-43
2022/08/25 01:24:12;;;;;;;;;;;;;;;;;;2106210;28;19926;-43
2022/08/25 01:25:13;;;;;;;;;;;;;;;;;;2106093;28;19924;-43
2022/08/25 01:26:14;;;;;;;;;;;;;;;;;;2106045;28;19988;-44
2022/08/25 01:27:15;;;;;;;;;;;;;;;;;;2106150;28;19992;-43
2022/08/25 01:28:16;;;;;;;;;;;;;;;;;;2105974;28;20073;-43
2022/08/25 01:29:20;;;;;;;;;;;;;;;;;;2106055;28;19989;-42
2022/08/25 01:30:20;;;;;;;;;;;;;;;;;;2105945;28;19924;-44
2022/08/25 01:31:22;;;;;;;;;;;;;;;;;;2105829;28;20372;-43
2022/08/25 01:32:24;;;;;;;;;;;;;;;;;;2106199;28;19991;-44
2022/08/25 01:33:25;;;;;;;;;;;;;;;;;;2106035;28;20026;-44
2022/08/25 01:34:26;;;;;;;;;;;;;;;;;;2105916;28;20456;-45
2022/08/25 01:35:27;;;;;;;;;;;;;;;;;;2105985;28;19924;-45
2022/08/25 01:36:27;;;;;;;;;;;;;;;;;;2106032;28;19924;-44
2022/08/25 01:37:28;;;;;;;;;;;;;;;;;;2106004;28;20301;-44
2022/08/25 01:38:29;;;;;;;;;;;;;;;;;;2105993;28;20381;-45
2022/08/25 01:39:32;;;;;;;;;;;;;;;;;;2105990;28;19924;-44
2022/08/25 01:40:32;;;;;;;;;;;;;;;;;;2106010;28;19969;-44
2022/08/25 01:41:33;;;;;;;;;;;;;;;;;;2105748;28;20033;-44
2022/08/25 01:42:34;;;;;;;;;;;;;;;;;;2106099;28;20404;-44
2022/08/25 01:43:35;;;;;;;;;;;;;;;;;;2105833;28;19928;-44
2022/08/25 01:44:36;;;;;;;;;;;;;;;;;;2106090;28;19924;-45
2022/08/25 01:45:37;;;;;;;;;;;;;;;;;;2105981;28;19928;-45
2022/08/25 01:46:38;;;;;;;;;;;;;;;;;;2105774;28;19924;-45
2022/08/25 01:47:39;;;;;;;;;;;;;;;;;;2105974;28;20003;-44
2022/08/25 01:48:39;;;;;;;;;;;;;;;;;;2105914;28;19982;-44
2022/08/25 01:49:40;;;;;;;;;;;;;;;;;;2105852;28;19938;-44
2022/08/25 01:50:42;;;;;;;;;;;;;;;;;;2105768;28;19931;-45
2022/08/25 01:51:43;;;;;;;;;;;;;;;;;;2105717;28;19924;-44
2022/08/25 01:52:44;;;;;;;;;;;;;;;;;;2105840;28;20358;-45
2022/08/25 01:53:45;;;;;;;;;;;;;;;;;;2105922;28;19924;-44
2022/08/25 01:54:46;;;;;;;;;;;;;;;;;;2106187;28;20011;-42
2022/08/25 01:56:00;;;;;;;;;;;;;;;;;;2106007;28;20017;-43
2022/08/25 01:57:01;;;;;;;;;;;;;;;;;;2105793;28;20003;-42
2022/08/25 01:58:02;;;;;;;;;;;;;;;;;;2105850;28;20387;-42
2022/08/25 01:59:02;;;;;;;;;;;;;;;;;;2105989;28;19924;-45
2022/08/25 02:00:03;;;;;;;;;;;;;;;;;;2105861;28;19928;-45
2022/08/25 02:01:04;;;;;;;;;;;;;;;;;;2105833;28;19974;-44
2022/08/25 02:02:05;;;;;;;;;;;;;;;;;;2105866;28;20023;-44
2022/08/25 02:03:06;;;;;;;;;;;;;;;;;;2105848;28;19977;-44
2022/08/25 02:04:16;;;;;;;;;;;;;;;;;;2105853;28;19931;-45
2022/08/25 02:05:17;;;;;;;;;;;;;;;;;;2106937;28;19985;-44
2022/08/25 02:06:23;;;;;;;;;;;;;;;;;;2107153;28;19924;-44
2022/08/25 02:07:29;;;;;;;;;;;;;;;;;;2107181;28;19924;-46
2022/08/25 02:08:29;;;;;;;;;;;;;;;;;;2107245;28;19928;-44
2022/08/25 02:09:30;;;;;;;;;;;;;;;;;;2107286;28;20349;-44
2022/08/25 02:10:31;;;;;;;;;;;;;;;;;;2107128;28;20019;-44
2022/08/25 02:11:34;;;;;;;;;;;;;;;;;;2107084;28;19978;-44
2022/08/25 02:12:35;;;;;;;;;;;;;;;;;;2107277;28;20028;-45
2022/08/25 02:13:36;;;;;;;;;;;;;;;;;;2107152;28;20023;-44
2022/08/25 02:14:37;;;;;;;;;;;;;;;;;;2107322;28;19967;-44
2022/08/25 02:15:38;;;;;;;;;;;;;;;;;;2107228;28;20262;-44
2022/08/25 02:16:39;;;;;;;;;;;;;;;;;;2107183;28;19924;-46
2022/08/25 02:17:40;;;;;;;;;;;;;;;;;;2107178;28;20381;-44
2022/08/25 02:18:40;;;;;;;;;;;;;;;;;;2107142;28;19969;-44
2022/08/25 02:19:41;;;;;;;;;;;;;;;;;;2107111;28;20447;-46
2022/08/25 02:20:42;;;;;;;;;;;;;;;;;;2107303;28;20006;-46
2022/08/25 02:21:43;;;;;;;;;;;;;;;;;;2107302;28;19994;-43
2022/08/25 02:22:44;;;;;;;;;;;;;;;;;;2107089;28;19924;-43
2022/08/25 02:23:45;;;;;;;;;;;;;;;;;;2107089;28;20444;-43
2022/08/25 02:24:46;;;;;;;;;;;;;;;;;;2107368;28;19924;-44
2022/08/25 02:25:47;;;;;;;;;;;;;;;;;;2107247;28;20006;-44
2022/08/25 02:26:49;;;;;;;;;;;;;;;;;;2107108;28;19928;-44
2022/08/25 02:27:50;;;;;;;;;;;;;;;;;;2107157;28;19967;-43
2022/08/25 02:28:51;;;;;;;;;;;;;;;;;;2107065;28;20365;-44
2022/08/25 02:29:52;;;;;;;;;;;;;;;;;;2107391;28;19960;-44
2022/08/25 02:30:52;;;;;;;;;;;;;;;;;;2107121;28;20094;-43
2022/08/25 02:31:59;;;;;;;;;;;;;;;;;;2107127;28;19978;-43
2022/08/25 02:32:59;;;;;;;;;;;;;;;;;;2107129;28;19928;-43
2022/08/25 02:34:01;;;;;;;;;;;;;;;;;;2107113;28;20019;-43
2022/08/25 02:35:01;;;;;;;;;;;;;;;;;;2106959;28;20308;-43
2022/08/25 02:36:02;;;;;;;;;;;;;;;;;;2107331;28;19924;-43
2022/08/25 02:37:03;;;;;;;;;;;;;;;;;;2107309;28;19931;-47
2022/08/25 02:38:04;;;;;;;;;;;;;;;;;;2107332;28;19924;-44
2022/08/25 02:39:05;;;;;;;;;;;;;;;;;;2107353;28;20285;-45
2022/08/25 02:40:06;;;;;;;;;;;;;;;;;;2107034;28;19968;-45
2022/08/25 02:41:08;;;;;;;;;;;;;;;;;;2106996;28;20381;-46
2022/08/25 02:42:08;;;;;;;;;;;;;;;;;;2106998;28;19999;-46
2022/08/25 02:43:09;;;;;;;;;;;;;;;;;;2107106;28;20369;-44
2022/08/25 02:44:10;;;;;;;;;;;;;;;;;;2106978;28;20007;-45
2022/08/25 02:45:11;;;;;;;;;;;;;;;;;;2107097;28;19989;-45
2022/08/25 02:46:12;;;;;;;;;;;;;;;;;;2106791;28;20008;-45
2022/08/25 02:47:13;;;;;;;;;;;;;;;;;;2107073;28;19924;-45
2022/08/25 02:48:13;;;;;;;;;;;;;;;;;;2106984;28;20008;-44
2022/08/25 02:49:14;;;;;;;;;;;;;;;;;;2107027;28;20365;-45
2022/08/25 02:50:15;;;;;;;;;;;;;;;;;;2107106;28;19924;-45
2022/08/25 02:51:16;;;;;;;;;;;;;;;;;;2106919;28;19924;-45
2022/08/25 02:52:17;;;;;;;;;;;;;;;;;;2106980;28;19924;-45
2022/08/25 02:53:18;;;;;;;;;;;;;;;;;;2107208;28;19931;-44
2022/08/25 02:54:19;;;;;;;;;;;;;;;;;;2107089;28;20015;-45
2022/08/25 02:55:20;;;;;;;;;;;;;;;;;;2107036;28;20387;-45
2022/08/25 02:56:21;;;;;;;;;;;;;;;;;;2106724;28;20019;-46
2022/08/25 02:57:22;;;;;;;;;;;;;;;;;;2106696;28;19934;-45
2022/08/25 02:58:22;;;;;;;;;;;;;;;;;;2106874;28;20130;-45
2022/08/25 02:59:23;;;;;;;;;;;;;;;;;;2106737;28;20053;-46
2022/08/25 03:00:25;;;;;;;;;;;;;;;;;;2106992;28;20256;-45
2022/08/25 03:01:26;;;;;;;;;;;;;;;;;;2106960;28;20040;-45
2022/08/25 03:02:29;;;;;;;;;;;;;;;;;;2106678;28;19924;-46
2022/08/25 03:03:30;;;;;;;;;;;;;;;;;;2106737;28;20282;-45
2022/08/25 03:04:31;;;;;;;;;;;;;;;;;;2106695;28;20003;-44
2022/08/25 03:05:32;;;;;;;;;;;;;;;;;;2106665;28;19955;-44
2022/08/25 03:06:32;;;;;;;;;;;;;;;;;;2106666;28;20428;-45
2022/08/25 03:07:33;;;;;;;;;;;;;;;;;;2106672;28;20048;-45
2022/08/25 03:08:35;;;;;;;;;;;;;;;;;;2106863;28;19952;-43
2022/08/25 03:09:36;;;;;;;;;;;;;;;;;;2106846;28;19932;-43
2022/08/25 03:10:37;;;;;;;;;;;;;;;;;;2106687;28;19924;-43
2022/08/25 03:11:38;;;;;;;;;;;;;;;;;;2106412;28;19925;-43
2022/08/25 03:12:40;;;;;;;;;;;;;;;;;;2106706;28;19928;-43
2022/08/25 03:13:41;;;;;;;;;;;;;;;;;;2106573;28;20003;-43
2022/08/25 03:14:42;;;;;;;;;;;;;;;;;;2106915;28;19998;-45
2022/08/25 03:15:43;;;;;;;;;;;;;;;;;;2106734;28;19924;-45
2022/08/25 03:16:43;;;;;;;;;;;;;;;;;;2105863;28;19959;-45
2022/08/25 03:17:48;;;;;;;;;;;;;;;;;;2106473;28;20333;-46
2022/08/25 03:18:48;;;;;;;;;;;;;;;;;;2106900;28;20331;-46
2022/08/25 03:19:49;;;;;;;;;;;;;;;;;;2106641;28;19928;-45
2022/08/25 03:20:50;;;;;;;;;;;;;;;;;;2106499;28;19928;-45
2022/08/25 03:21:54;;;;;;;;;;;;;;;;;;2106452;28;19924;-45
2022/08/25 03:22:55;;;;;;;;;;;;;;;;;;2106729;28;19924;-45
2022/08/25 03:23:56;;;;;;;;;;;;;;;;;;2106693;28;19924;-45
2022/08/25 03:26:52;;;;;;;;;;;;;;;;;;2106774;28;19963;-45
2022/08/25 03:27:41;;;;;;;;;;;;;;;;;;2106693;28;19974;-45
2022/08/25 03:28:42;;;;;;;;;;;;;;;;;;2106947;28;19924;-46
2022/08/25 03:29:44;;;;;;;;;;;;;;;;;;2106638;28;20011;-45
2022/08/25 03:30:44;;;;;;;;;;;;;;;;;;2106850;28;20041;-45
2022/08/25 03:31:45;;;;;;;;;;;;;;;;;;2106478;28;20354;-44
2022/08/25 03:32:46;;;;;;;;;;;;;;;;;;2106559;28;19932;-44
2022/08/25 03:33:47;;;;;;;;;;;;;;;;;;2106506;28;19974;-44
2022/08/25 03:34:48;;;;;;;;;;;;;;;;;;2106649;28;20270;-45
2022/08/25 03:35:49;;;;;;;;;;;;;;;;;;2106642;28;20016;-45
2022/08/25 03:36:50;;;;;;;;;;;;;;;;;;2106587;28;19935;-46
2022/08/25 03:37:51;;;;;;;;;;;;;;;;;;2106686;28;20450;-46
2022/08/25 03:38:52;;;;;;;;;;;;;;;;;;2106698;28;19959;-45
2022/08/25 03:39:53;;;;;;;;;;;;;;;;;;2106821;28;20011;-45
2022/08/25 03:40:54;;;;;;;;;;;;;;;;;;2106790;28;20022;-45
2022/08/25 03:41:54;;;;;;;;;;;;;;;;;;2106589;28;19970;-46
2022/08/25 03:42:55;;;;;;;;;;;;;;;;;;2106441;28;19977;-45
2022/08/25 03:43:56;;;;;;;;;;;;;;;;;;2106553;28;19924;-45
2022/08/25 03:44:58;;;;;;;;;;;;;;;;;;2106608;28;19924;-45
2022/08/25 03:45:58;;;;;;;;;;;;;;;;;;2106620;28;20468;-45
2022/08/25 03:46:59;;;;;;;;;;;;;;;;;;2106662;28;20217;-45
2022/08/25 03:48:00;;;;;;;;;;;;;;;;;;2106570;28;20502;-45
2022/08/25 03:49:01;;;;;;;;;;;;;;;;;;2106698;28;19961;-44
2022/08/25 03:50:02;;;;;;;;;;;;;;;;;;2106544;28;20376;-45
2022/08/25 03:51:03;;;;;;;;;;;;;;;;;;2106694;28;19924;-44
2022/08/25 03:52:04;;;;;;;;;;;;;;;;;;2106493;28;19924;-44
2022/08/25 03:53:05;;;;;;;;;;;;;;;;;;2106661;28;19924;-44
2022/08/25 03:54:05;;;;;;;;;;;;;;;;;;2106481;28;19950;-43
2022/08/25 03:55:06;;;;;;;;;;;;;;;;;;2106747;28;20045;-43
2022/08/25 03:56:08;;;;;;;;;;;;;;;;;;2106516;28;19924;-44
2022/08/25 03:57:09;;;;;;;;;;;;;;;;;;2106665;28;19970;-44
2022/08/25 03:58:11;;;;;;;;;;;;;;;;;;2106521;28;20347;-43
2022/08/25 03:59:12;;;;;;;;;;;;;;;;;;2106482;28;19924;-44
2022/08/25 04:00:12;;;;;;;;;;;;;;;;;;2106641;28;19924;-44
2022/08/25 04:01:13;;;;;;;;;;;;;;;;;;2106488;28;19924;-44
2022/08/25 04:02:14;;;;;;;;;;;;;;;;;;2106477;28;19924;-43
2022/08/25 04:03:15;;;;;;;;;;;;;;;;;;2106686;28;19925;-44
2022/08/25 04:04:16;;;;;;;;;;;;;;;;;;2106696;28;20023;-43
2022/08/25 04:05:19;;;;;;;;;;;;;;;;;;2106465;28;19924;-43
2022/08/25 04:06:19;;;;;;;;;;;;;;;;;;2106387;28;20015;-43
2022/08/25 04:07:20;;;;;;;;;;;;;;;;;;2106710;28;19931;-44
2022/08/25 04:08:21;;;;;;;;;;;;;;;;;;2106799;28;20006;-45
2022/08/25 04:09:22;;;;;;;;;;;;;;;;;;2106484;28;19996;-46
2022/08/25 04:10:23;;;;;;;;;;;;;;;;;;2106726;28;20361;-46
2022/08/25 04:11:24;;;;;;;;;;;;;;;;;;2106358;28;19931;-46
2022/08/25 04:12:24;;;;;;;;;;;;;;;;;;2106324;28;20081;-44
2022/08/25 04:13:26;;;;;;;;;;;;;;;;;;2106608;28;20358;-45
2022/08/25 04:14:26;;;;;;;;;;;;;;;;;;2106472;28;19931;-45
2022/08/25 04:15:28;;;;;;;;;;;;;;;;;;2106491;28;19924;-44
2022/08/25 04:16:30;;;;;;;;;;;;;;;;;;2106298;28;20011;-45
2022/08/25 04:17:31;;;;;;;;;;;;;;;;;;2106568;28;20421;-45
2022/08/25 04:18:33;;;;;;;;;;;;;;;;;;2106380;28;20007;-46
2022/08/25 04:19:34;;;;;;;;;;;;;;;;;;2106538;28;19966;-45
2022/08/25 04:20:34;;;;;;;;;;;;;;;;;;2106390;28;20274;-45
2022/08/25 04:21:35;;;;;;;;;;;;;;;;;;2106525;28;20033;-46
2022/08/25 04:22:37;;;;;;;;;;;;;;;;;;2106408;28;19924;-46
2022/08/25 04:23:39;;;;;;;;;;;;;;;;;;2106350;28;20015;-43
2022/08/25 04:24:40;;;;;;;;;;;;;;;;;;2106473;28;20012;-44
2022/08/25 04:25:41;;;;;;;;;;;;;;;;;;2106354;28;19958;-44
2022/08/25 04:26:42;;;;;;;;;;;;;;;;;;2106423;28;20073;-44
2022/08/25 04:27:43;;;;;;;;;;;;;;;;;;2106320;28;19973;-45
2022/08/25 04:28:44;;;;;;;;;;;;;;;;;;2106361;28;20012;-45
2022/08/25 04:29:45;;;;;;;;;;;;;;;;;;2106406;28;19982;-44
2022/08/25 04:30:45;;;;;;;;;;;;;;;;;;2106364;28;19924;-44
2022/08/25 04:31:50;;;;;;;;;;;;;;;;;;2106390;28;19939;-46
2022/08/25 04:32:51;;;;;;;;;;;;;;;;;;2106311;28;20392;-46
2022/08/25 04:33:52;;;;;;;;;;;;;;;;;;2106521;28;19935;-46
2022/08/25 04:34:53;;;;;;;;;;;;;;;;;;2106258;28;19924;-46
2022/08/25 04:35:54;;;;;;;;;;;;;;;;;;2106448;28;20292;-46
2022/08/25 04:36:55;;;;;;;;;;;;;;;;;;2106188;28;20448;-46
2022/08/25 04:37:56;;;;;;;;;;;;;;;;;;2106637;28;19924;-48
2022/08/25 04:38:56;;;;;;;;;;;;;;;;;;2106150;28;20040;-45
2022/08/25 04:39:57;;;;;;;;;;;;;;;;;;2106343;28;20064;-46
2022/08/25 04:40:58;;;;;;;;;;;;;;;;;;2106251;28;20013;-45
2022/08/25 04:41:59;;;;;;;;;;;;;;;;;;2106427;28;19993;-46
2022/08/25 04:43:00;;;;;;;;;;;;;;;;;;2106270;28;20321;-45
2022/08/25 04:44:02;;;;;;;;;;;;;;;;;;2106258;28;19924;-48
2022/08/25 04:45:04;;;;;;;;;;;;;;;;;;2106414;28;20007;-46
2022/08/25 04:46:05;;;;;;;;;;;;;;;;;;2106177;28;20002;-45
2022/08/25 04:47:06;;;;;;;;;;;;;;;;;;2106163;28;19977;-47
2022/08/25 04:48:07;;;;;;;;;;;;;;;;;;2106292;28;19938;-45
2022/08/25 04:49:08;;;;;;;;;;;;;;;;;;2106152;28;19924;-45
2022/08/25 04:50:09;;;;;;;;;;;;;;;;;;2106250;28;20058;-46
2022/08/25 04:51:10;;;;;;;;;;;;;;;;;;2106415;28;19959;-44
2022/08/25 04:52:11;;;;;;;;;;;;;;;;;;2106073;28;20381;-45
2022/08/25 04:53:13;;;;;;;;;;;;;;;;;;2106363;28;20288;-45
2022/08/25 04:54:15;;;;;;;;;;;;;;;;;;2106296;28;19928;-46
2022/08/25 04:55:16;;;;;;;;;;;;;;;;;;2106485;28;20007;-44
2022/08/25 04:56:17;;;;;;;;;;;;;;;;;;2106232;28;19931;-44
2022/08/25 04:57:18;;;;;;;;;;;;;;;;;;2106158;28;19924;-44
2022/08/25 04:58:19;;;;;;;;;;;;;;;;;;2106496;28;19924;-44
2022/08/25 04:59:20;;;;;;;;;;;;;;;;;;2106256;28;20007;-44
2022/08/25 05:00:21;;;;;;;;;;;;;;;;;;2106350;28;19924;-44
2022/08/25 05:01:21;;;;;;;;;;;;;;;;;;2106000;28;19935;-44
2022/08/25 05:02:24;;;;;;;;;;;;;;;;;;2106145;28;19979;-45
2022/08/25 05:03:25;;;;;;;;;;;;;;;;;;2106217;28;20053;-44
2022/08/25 05:04:26;;;;;;;;;;;;;;;;;;2106279;28;20011;-44
2022/08/25 05:05:29;;;;;;;;;;;;;;;;;;2106126;28;19992;-43
2022/08/25 05:06:30;;;;;;;;;;;;;;;;;;2106347;28;19930;-44
2022/08/25 05:07:30;;;;;;;;;;;;;;;;;;2106083;28;19927;-45
2022/08/25 05:08:31;;;;;;;;;;;;;;;;;;2106154;28;19932;-44
2022/08/25 05:09:32;;;;;;;;;;;;;;;;;;2106308;28;20015;-44
2022/08/25 05:10:33;;;;;;;;;;;;;;;;;;2106006;28;20447;-43
2022/08/25 05:11:34;;;;;;;;;;;;;;;;;;2105962;28;20023;-44
2022/08/25 05:12:35;;;;;;;;;;;;;;;;;;2106124;28;20420;-44
2022/08/25 05:13:36;;;;;;;;;;;;;;;;;;2106404;28;19928;-44
2022/08/25 05:14:37;;;;;;;;;;;;;;;;;;2106269;28;20366;-44
2022/08/25 05:15:50;;;;;;;;;;;;;;;;;;2106116;28;19931;-44
2022/08/25 05:16:51;;;;;;;;;;;;;;;;;;2105981;28;19924;-44
2022/08/25 05:17:52;;;;;;;;;;;;;;;;;;2106246;28;19928;-44
2022/08/25 05:19:04;;;;;;;;;;;;;;;;;;2106197;28;19932;-44
2022/08/25 05:20:05;;;;;;;;;;;;;;;;;;2106156;28;19957;-44
2022/08/25 05:21:06;;;;;;;;;;;;;;;;;;2106110;28;20452;-44
2022/08/25 05:22:06;;;;;;;;;;;;;;;;;;2105882;28;20003;-44
2022/08/25 05:23:07;;;;;;;;;;;;;;;;;;2105992;28;19924;-45
2022/08/25 05:24:08;;;;;;;;;;;;;;;;;;2106309;28;20408;-45
2022/08/25 05:25:09;;;;;;;;;;;;;;;;;;2106200;28;19928;-47
2022/08/25 05:26:10;;;;;;;;;;;;;;;;;;2105889;28;20003;-46
2022/08/25 05:27:11;;;;;;;;;;;;;;;;;;2106146;28;19924;-46
2022/08/25 05:28:13;;;;;;;;;;;;;;;;;;2106109;28;20011;-46
2022/08/25 05:29:14;;;;;;;;;;;;;;;;;;2105978;28;20383;-48
2022/08/25 05:30:15;;;;;;;;;;;;;;;;;;2106258;28;20007;-47
2022/08/25 05:31:16;;;;;;;;;;;;;;;;;;2105939;28;19997;-46
2022/08/25 05:32:17;;;;;;;;;;;;;;;;;;2106078;28;19956;-45
2022/08/25 05:33:19;;;;;;;;;;;;;;;;;;2106192;28;20382;-44
2022/08/25 05:34:20;;;;;;;;;;;;;;;;;;2106078;28;20015;-44
2022/08/25 05:35:21;;;;;;;;;;;;;;;;;;2105735;28;20362;-44
2022/08/25 05:36:22;;;;;;;;;;;;;;;;;;2106019;28;19928;-44
2022/08/25 05:37:23;;;;;;;;;;;;;;;;;;2105898;28;19967;-44
2022/08/25 05:38:24;;;;;;;;;;;;;;;;;;2105969;28;20035;-45
2022/08/25 05:39:25;;;;;;;;;;;;;;;;;;2106103;28;19939;-45
2022/08/25 05:40:27;;;;;;;;;;;;;;;;;;2107516;28;19969;-45
2022/08/25 05:41:28;;;;;;;;;;;;;;;;;;2107262;28;19924;-44
2022/08/25 05:42:29;;;;;;;;;;;;;;;;;;2107407;28;20013;-45
2022/08/25 05:43:30;;;;;;;;;;;;;;;;;;2107793;28;19924;-46
2022/08/25 05:44:31;;;;;;;;;;;;;;;;;;2107315;28;19932;-46
2022/08/25 05:45:31;;;;;;;;;;;;;;;;;;2107641;28;19932;-46
2022/08/25 05:46:33;;;;;;;;;;;;;;;;;;2107558;28;19924;-46
2022/08/25 05:47:33;;;;;;;;;;;;;;;;;;2107442;28;19930;-43
2022/08/25 05:48:34;;;;;;;;;;;;;;;;;;2107655;28;20284;-43
2022/08/25 05:49:35;;;;;;;;;;;;;;;;;;2107492;28;20367;-43
2022/08/25 05:50:36;;;;;;;;;;;;;;;;;;2107345;28;20436;-43
2022/08/25 05:51:37;;;;;;;;;;;;;;;;;;2107294;28;19925;-42
2022/08/25 05:52:38;;;;;;;;;;;;;;;;;;2107394;28;20300;-43
2022/08/25 05:53:40;;;;;;;;;;;;;;;;;;2107433;28;19952;-43
2022/08/25 05:54:41;;;;;;;;;;;;;;;;;;2107290;28;20583;-42
2022/08/25 05:55:42;;;;;;;;;;;;;;;;;;2107321;28;19924;-42
2022/08/25 05:56:44;;;;;;;;;;;;;;;;;;2107281;28;20321;-42
2022/08/25 05:57:45;;;;;;;;;;;;;;;;;;2107570;28;20015;-44
2022/08/25 05:58:46;;;;;;;;;;;;;;;;;;2107318;28;19924;-46
2022/08/25 05:59:46;;;;;;;;;;;;;;;;;;2107360;28;19970;-43
2022/08/25 06:00:48;;;;;;;;;;;;;;;;;;2107408;28;19925;-43
2022/08/25 06:03:08;;;;;;;;;;;;;;;;;;2107449;28;20258;-44
2022/08/25 06:04:09;;;;;;;;;;;;;;;;;;2107278;28;19988;-44
2022/08/25 06:05:09;;;;;;;;;;;;;;;;;;2107397;28;19932;-43
2022/08/25 06:06:10;;;;;;;;;;;;;;;;;;2107364;28;19980;-42
2022/08/25 06:07:11;;;;;;;;;;;;;;;;;;2107197;28;19967;-43
2022/08/25 06:08:12;;;;;;;;;;;;;;;;;;2107206;28;19924;-44
2022/08/25 06:09:13;;;;;;;;;;;;;;;;;;2107265;28;20023;-43
2022/08/25 06:10:14;;;;;;;;;;;;;;;;;;2107420;28;20061;-43
2022/08/25 06:11:15;;;;;;;;;;;;;;;;;;2106980;28;19924;-43
2022/08/25 06:12:16;;;;;;;;;;;;;;;;;;2107419;28;20327;-45
2022/08/25 06:13:17;;;;;;;;;;;;;;;;;;2107514;28;20521;-43
2022/08/25 06:14:18;;;;;;;;;;;;;;;;;;2107274;28;20023;-44
2022/08/25 06:15:19;;;;;;;;;;;;;;;;;;2107509;28;20011;-43
2022/08/25 06:16:20;;;;;;;;;;;;;;;;;;2107158;28;20453;-43
2022/08/25 06:17:21;;;;;;;;;;;;;;;;;;2107259;28;20313;-45
2022/08/25 06:18:22;;;;;;;;;;;;;;;;;;2107176;28;20550;-44
2022/08/25 06:19:23;;;;;;;;;;;;;;;;;;2107331;28;20366;-44
2022/08/25 06:20:24;;;;;;;;;;;;;;;;;;2107260;28;19924;-44
2022/08/25 06:21:25;;;;;;;;;;;;;;;;;;2107261;28;19924;-44
2022/08/25 06:22:26;;;;;;;;;;;;;;;;;;2107305;28;19951;-45
2022/08/25 06:23:27;;;;;;;;;;;;;;;;;;2107133;28;20507;-43
2022/08/25 06:24:28;;;;;;;;;;;;;;;;;;2107254;28;19950;-43
2022/08/25 06:25:32;;;;;;;;;;;;;;;;;;2107213;28;20388;-44
2022/08/25 06:26:33;;;;;;;;;;;;;;;;;;2106909;28;20389;-44
2022/08/25 06:27:34;;;;;;;;;;;;;;;;;;2107489;28;19931;-45
2022/08/25 06:28:34;;;;;;;;;;;;;;;;;;2107255;28;19924;-45
2022/08/25 06:29:35;;;;;;;;;;;;;;;;;;2107453;28;19924;-45
2022/08/25 06:30:36;;;;;;;;;;;;;;;;;;2107497;28;20023;-44
2022/08/25 06:31:37;;;;;;;;;;;;;;;;;;2106425;28;20289;-45
2022/08/25 06:32:38;;;;;;;;;;;;;;;;;;2107235;28;19928;-46
2022/08/25 06:33:39;;;;;;;;;;;;;;;;;;2107263;28;19973;-45
2022/08/25 06:34:40;;;;;;;;;;;;;;;;;;2107258;28;19928;-46
2022/08/25 06:35:41;;;;;;;;;;;;;;;;;;2107148;28;19925;-45
2022/08/25 06:36:42;;;;;;;;;;;;;;;;;;2107532;28;19969;-47
2022/08/25 06:37:43;;;;;;;;;;;;;;;;;;2107616;28;20347;-43
2022/08/25 06:38:44;;;;;;;;;;;;;;;;;;2107034;28;19924;-44
2022/08/25 06:39:45;;;;;;;;;;;;;;;;;;2107226;28;20022;-43
2022/08/25 06:40:46;;;;;;;;;;;;;;;;;;2107200;28;19985;-45
2022/08/25 06:41:47;;;;;;;;;;;;;;;;;;2107403;28;20366;-43
2022/08/25 06:42:48;;;;;;;;;;;;;;;;;;2107116;28;20378;-44
2022/08/25 06:43:49;;;;;;;;;;;;;;;;;;2107194;28;19924;-44
2022/08/25 06:44:54;;;;;;;;;;;;;;;;;;2107090;28;19924;-43
2022/08/25 06:45:55;;;;;;;;;;;;;;;;;;2107218;28;20211;-44
2022/08/25 06:46:56;;;;;;;;;;;;;;;;;;2107106;28;20003;-44
2022/08/25 06:47:58;;;;;;;;;;;;;;;;;;2107190;28;20370;-45
2022/08/25 06:48:59;;;;;;;;;;;;;;;;;;2107026;28;19969;-46
2022/08/25 06:50:02;;;;;;;;;;;;;;;;;;2107168;28;19928;-46
2022/08/25 06:51:04;;;;;;;;;;;;;;;;;;2106447;28;20077;-46
2022/08/25 06:52:05;;;;;;;;;;;;;;;;;;2106215;28;20014;-45
2022/08/25 06:53:05;;;;;;;;;;;;;;;;;;2107356;28;20019;-43
2022/08/25 06:54:06;;;;;;;;;;;;;;;;;;2106946;28;19924;-45
2022/08/25 06:55:07;;;;;;;;;;;;;;;;;;2107282;28;19967;-44
2022/08/25 06:56:08;;;;;;;;;;;;;;;;;;2107028;28;20009;-45
2022/08/25 06:57:09;;;;;;;;;;;;;;;;;;2107102;28;19969;-44
2022/08/25 06:58:10;;;;;;;;;;;;;;;;;;2107067;28;20387;-43
2022/08/25 06:59:11;;;;;;;;;;;;;;;;;;2106897;28;19924;-43
2022/08/25 07:00:12;;;;;;;;;;;;;;;;;;2106908;28;20401;-44
2022/08/25 07:01:13;;;;;;;;;;;;;;;;;;2106835;28;19925;-44
2022/08/25 07:02:16;;;;;;;;;;;;;;;;;;2107058;28;20416;-47